sensor_id;sensor_type;location;lat;lon;timestamp;P1;durP1;ratioP1;P2;durP2;ratioP2
39020;SDS011;25188;51.958;5.842;2024-03-06T00:00:00;32.50;;;20.63;;
39020;SDS011;25188;51.958;5.842;2024-03-06T00:02:26;32.47;;;20.93;;
39020;SDS011;25188;51.958;5.842;2024-03-06T00:04:52;33.17;;;21.07;;
39020;SDS011;25188;51.958;5.842;2024-03-06T00:07:18;34.73;;;19.83;;
39020;SDS011;25188;51.958;5.842;2024-03-06T00:09:44;34.33;;;19.93;;
39020;SDS011;25188;51.958;5.842;2024-03-06T00:12:09;31.80;;;20.80;;
39020;SDS011;25188;51.958;5.842;2024-03-06T00:14:35;32.60;;;20.50;;
39020;SDS011;25188;51.958;5.842;2024-03-06T00:17:01;34.03;;;20.73;;
39020;SDS011;25188;51.958;5.842;2024-03-06T00:19:31;35.23;;;22.17;;
39020;SDS011;25188;51.958;5.842;2024-03-06T00:21:57;35.40;;;21.57;;
39020;SDS011;25188;51.958;5.842;2024-03-06T00:24:24;34.30;;;21.97;;
39020;SDS011;25188;51.958;5.842;2024-03-06T00:26:50;33.67;;;20.87;;
39020;SDS011;25188;51.958;5.842;2024-03-06T00:29:16;35.67;;;21.57;;
39020;SDS011;25188;51.958;5.842;2024-03-06T00:31:42;36.37;;;22.03;;
39020;SDS011;25188;51.958;5.842;2024-03-06T00:34:08;35.00;;;21.97;;
39020;SDS011;25188;51.958;5.842;2024-03-06T00:36:36;38.30;;;21.73;;
39020;SDS011;25188;51.958;5.842;2024-03-06T00:39:02;34.97;;;21.13;;
39020;SDS011;25188;51.958;5.842;2024-03-06T00:41:29;33.73;;;21.53;;
39020;SDS011;25188;51.958;5.842;2024-03-06T00:43:55;35.97;;;21.93;;
39020;SDS011;25188;51.958;5.842;2024-03-06T00:46:21;35.97;;;22.27;;
39020;SDS011;25188;51.958;5.842;2024-03-06T00:48:48;33.60;;;22.87;;
39020;SDS011;25188;51.958;5.842;2024-03-06T00:51:13;38.37;;;23.53;;
39020;SDS011;25188;51.958;5.842;2024-03-06T00:53:39;32.77;;;22.90;;
39020;SDS011;25188;51.958;5.842;2024-03-06T00:56:05;36.67;;;22.50;;
39020;SDS011;25188;51.958;5.842;2024-03-06T00:58:31;38.43;;;22.70;;
39020;SDS011;25188;51.958;5.842;2024-03-06T01:00:57;38.90;;;24.23;;
39020;SDS011;25188;51.958;5.842;2024-03-06T01:03:23;41.23;;;24.97;;
39020;SDS011;25188;51.958;5.842;2024-03-06T01:05:49;35.03;;;22.23;;
39020;SDS011;25188;51.958;5.842;2024-03-06T01:08:17;40.80;;;24.87;;
39020;SDS011;25188;51.958;5.842;2024-03-06T01:10:43;39.97;;;24.47;;
39020;SDS011;25188;51.958;5.842;2024-03-06T01:13:09;37.67;;;23.27;;
39020;SDS011;25188;51.958;5.842;2024-03-06T01:15:36;41.57;;;25.03;;
39020;SDS011;25188;51.958;5.842;2024-03-06T01:18:02;39.07;;;23.73;;
39020;SDS011;25188;51.958;5.842;2024-03-06T01:20:28;41.30;;;25.30;;
39020;SDS011;25188;51.958;5.842;2024-03-06T01:22:54;42.73;;;24.93;;
39020;SDS011;25188;51.958;5.842;2024-03-06T01:25:19;40.33;;;25.13;;
39020;SDS011;25188;51.958;5.842;2024-03-06T01:27:47;39.67;;;24.87;;
39020;SDS011;25188;51.958;5.842;2024-03-06T01:30:13;43.47;;;25.60;;
39020;SDS011;25188;51.958;5.842;2024-03-06T01:32:39;39.17;;;24.33;;
39020;SDS011;25188;51.958;5.842;2024-03-06T01:35:05;34.87;;;22.90;;
39020;SDS011;25188;51.958;5.842;2024-03-06T01:37:31;37.23;;;23.70;;
39020;SDS011;25188;51.958;5.842;2024-03-06T01:39:57;40.53;;;25.10;;
39020;SDS011;25188;51.958;5.842;2024-03-06T01:42:23;40.13;;;23.93;;
39020;SDS011;25188;51.958;5.842;2024-03-06T01:44:49;38.93;;;24.47;;
39020;SDS011;25188;51.958;5.842;2024-03-06T01:47:15;40.00;;;24.47;;
39020;SDS011;25188;51.958;5.842;2024-03-06T01:49:40;38.60;;;24.80;;
39020;SDS011;25188;51.958;5.842;2024-03-06T01:52:07;41.73;;;24.00;;
39020;SDS011;25188;51.958;5.842;2024-03-06T01:54:37;35.33;;;23.73;;
39020;SDS011;25188;51.958;5.842;2024-03-06T01:57:03;38.50;;;23.93;;
39020;SDS011;25188;51.958;5.842;2024-03-06T01:59:30;35.67;;;23.80;;
39020;SDS011;25188;51.958;5.842;2024-03-06T02:01:56;36.67;;;23.10;;
39020;SDS011;25188;51.958;5.842;2024-03-06T02:04:22;34.00;;;21.90;;
39020;SDS011;25188;51.958;5.842;2024-03-06T02:06:48;38.07;;;23.83;;
39020;SDS011;25188;51.958;5.842;2024-03-06T02:09:14;37.40;;;23.93;;
39020;SDS011;25188;51.958;5.842;2024-03-06T02:11:40;33.87;;;21.73;;
39020;SDS011;25188;51.958;5.842;2024-03-06T02:14:07;34.60;;;21.93;;
39020;SDS011;25188;51.958;5.842;2024-03-06T02:16:35;33.60;;;20.63;;
39020;SDS011;25188;51.958;5.842;2024-03-06T02:19:07;37.47;;;22.53;;
39020;SDS011;25188;51.958;5.842;2024-03-06T02:21:33;33.27;;;19.87;;
39020;SDS011;25188;51.958;5.842;2024-03-06T02:23:59;35.13;;;20.07;;
39020;SDS011;25188;51.958;5.842;2024-03-06T02:26:25;33.30;;;20.10;;
39020;SDS011;25188;51.958;5.842;2024-03-06T02:28:52;47.80;;;19.33;;
39020;SDS011;25188;51.958;5.842;2024-03-06T02:31:19;33.57;;;18.70;;
39020;SDS011;25188;51.958;5.842;2024-03-06T02:33:46;38.40;;;17.13;;
39020;SDS011;25188;51.958;5.842;2024-03-06T02:36:22;36.23;;;20.27;;
39020;SDS011;25188;51.958;5.842;2024-03-06T02:38:47;31.63;;;17.63;;
39020;SDS011;25188;51.958;5.842;2024-03-06T02:41:14;29.03;;;17.27;;
39020;SDS011;25188;51.958;5.842;2024-03-06T02:43:40;34.87;;;18.63;;
39020;SDS011;25188;51.958;5.842;2024-03-06T02:46:07;32.00;;;18.53;;
39020;SDS011;25188;51.958;5.842;2024-03-06T02:48:33;31.90;;;18.23;;
39020;SDS011;25188;51.958;5.842;2024-03-06T02:50:59;39.73;;;19.17;;
39020;SDS011;25188;51.958;5.842;2024-03-06T02:53:25;38.37;;;19.77;;
39020;SDS011;25188;51.958;5.842;2024-03-06T02:55:51;44.10;;;18.27;;
39020;SDS011;25188;51.958;5.842;2024-03-06T02:58:17;57.67;;;18.23;;
39020;SDS011;25188;51.958;5.842;2024-03-06T03:00:43;41.73;;;18.43;;
39020;SDS011;25188;51.958;5.842;2024-03-06T03:03:09;43.10;;;18.00;;
39020;SDS011;25188;51.958;5.842;2024-03-06T03:05:37;27.00;;;16.10;;
39020;SDS011;25188;51.958;5.842;2024-03-06T03:08:03;32.80;;;17.43;;
39020;SDS011;25188;51.958;5.842;2024-03-06T03:10:30;28.63;;;17.67;;
39020;SDS011;25188;51.958;5.842;2024-03-06T03:12:56;25.73;;;17.17;;
39020;SDS011;25188;51.958;5.842;2024-03-06T03:15:22;31.00;;;17.73;;
39020;SDS011;25188;51.958;5.842;2024-03-06T03:17:47;30.07;;;16.30;;
39020;SDS011;25188;51.958;5.842;2024-03-06T03:20:13;34.80;;;15.80;;
39020;SDS011;25188;51.958;5.842;2024-03-06T03:22:40;27.17;;;16.97;;
39020;SDS011;25188;51.958;5.842;2024-03-06T03:25:09;28.57;;;16.97;;
39020;SDS011;25188;51.958;5.842;2024-03-06T03:27:36;28.83;;;18.00;;
39020;SDS011;25188;51.958;5.842;2024-03-06T03:30:04;25.80;;;17.23;;
39020;SDS011;25188;51.958;5.842;2024-03-06T03:32:34;27.40;;;17.93;;
39020;SDS011;25188;51.958;5.842;2024-03-06T03:34:59;27.27;;;18.03;;
39020;SDS011;25188;51.958;5.842;2024-03-06T03:37:25;29.00;;;17.30;;
39020;SDS011;25188;51.958;5.842;2024-03-06T03:39:51;26.83;;;18.17;;
39020;SDS011;25188;51.958;5.842;2024-03-06T03:42:16;25.07;;;16.87;;
39020;SDS011;25188;51.958;5.842;2024-03-06T03:44:42;27.03;;;18.60;;
39020;SDS011;25188;51.958;5.842;2024-03-06T03:47:08;28.63;;;18.07;;
39020;SDS011;25188;51.958;5.842;2024-03-06T03:49:34;27.83;;;18.53;;
39020;SDS011;25188;51.958;5.842;2024-03-06T03:52:00;30.63;;;18.47;;
39020;SDS011;25188;51.958;5.842;2024-03-06T03:54:25;28.37;;;17.70;;
39020;SDS011;25188;51.958;5.842;2024-03-06T03:56:51;30.50;;;19.73;;
39020;SDS011;25188;51.958;5.842;2024-03-06T03:59:17;30.73;;;20.03;;
39020;SDS011;25188;51.958;5.842;2024-03-06T04:01:44;34.53;;;20.27;;
39020;SDS011;25188;51.958;5.842;2024-03-06T04:04:11;33.97;;;19.83;;
39020;SDS011;25188;51.958;5.842;2024-03-06T04:06:37;37.17;;;20.43;;
39020;SDS011;25188;51.958;5.842;2024-03-06T04:09:03;38.33;;;22.73;;
39020;SDS011;25188;51.958;5.842;2024-03-06T04:11:29;34.47;;;22.63;;
39020;SDS011;25188;51.958;5.842;2024-03-06T04:13:55;33.63;;;21.70;;
39020;SDS011;25188;51.958;5.842;2024-03-06T04:16:21;37.33;;;23.03;;
39020;SDS011;25188;51.958;5.842;2024-03-06T04:18:47;39.20;;;23.47;;
39020;SDS011;25188;51.958;5.842;2024-03-06T04:21:12;37.90;;;23.07;;
39020;SDS011;25188;51.958;5.842;2024-03-06T04:23:39;41.40;;;23.20;;
39020;SDS011;25188;51.958;5.842;2024-03-06T04:26:05;42.97;;;24.57;;
39020;SDS011;25188;51.958;5.842;2024-03-06T04:28:31;37.43;;;23.03;;
39020;SDS011;25188;51.958;5.842;2024-03-06T04:30:57;41.10;;;24.33;;
39020;SDS011;25188;51.958;5.842;2024-03-06T04:33:22;36.93;;;21.43;;
39020;SDS011;25188;51.958;5.842;2024-03-06T04:35:48;33.27;;;21.90;;
39020;SDS011;25188;51.958;5.842;2024-03-06T04:38:14;36.47;;;21.13;;
39020;SDS011;25188;51.958;5.842;2024-03-06T04:40:40;36.33;;;21.87;;
39020;SDS011;25188;51.958;5.842;2024-03-06T04:43:06;36.63;;;21.13;;
39020;SDS011;25188;51.958;5.842;2024-03-06T04:45:32;38.10;;;21.43;;
39020;SDS011;25188;51.958;5.842;2024-03-06T04:47:58;34.10;;;21.53;;
39020;SDS011;25188;51.958;5.842;2024-03-06T04:50:24;32.00;;;19.93;;
39020;SDS011;25188;51.958;5.842;2024-03-06T04:52:50;31.87;;;20.07;;
39020;SDS011;25188;51.958;5.842;2024-03-06T04:55:16;31.00;;;19.57;;
39020;SDS011;25188;51.958;5.842;2024-03-06T04:57:45;31.90;;;17.67;;
39020;SDS011;25188;51.958;5.842;2024-03-06T05:00:11;27.73;;;18.07;;
39020;SDS011;25188;51.958;5.842;2024-03-06T05:02:38;31.33;;;18.33;;
39020;SDS011;25188;51.958;5.842;2024-03-06T05:05:04;29.47;;;18.27;;
39020;SDS011;25188;51.958;5.842;2024-03-06T05:07:30;32.47;;;17.80;;
39020;SDS011;25188;51.958;5.842;2024-03-06T05:09:57;28.50;;;17.87;;
39020;SDS011;25188;51.958;5.842;2024-03-06T05:12:23;27.47;;;17.40;;
39020;SDS011;25188;51.958;5.842;2024-03-06T05:14:53;27.67;;;17.70;;
39020;SDS011;25188;51.958;5.842;2024-03-06T05:17:19;30.30;;;18.27;;
39020;SDS011;25188;51.958;5.842;2024-03-06T05:19:46;30.43;;;18.40;;
39020;SDS011;25188;51.958;5.842;2024-03-06T05:22:15;32.60;;;18.90;;
39020;SDS011;25188;51.958;5.842;2024-03-06T05:24:42;26.67;;;18.03;;
39020;SDS011;25188;51.958;5.842;2024-03-06T05:27:08;31.90;;;19.70;;
39020;SDS011;25188;51.958;5.842;2024-03-06T05:29:41;22.25;;;14.05;;
39020;SDS011;25188;51.958;5.842;2024-03-06T05:32:07;30.83;;;18.33;;
39020;SDS011;25188;51.958;5.842;2024-03-06T05:34:33;33.80;;;19.13;;
39020;SDS011;25188;51.958;5.842;2024-03-06T05:37:00;33.50;;;18.90;;
39020;SDS011;25188;51.958;5.842;2024-03-06T05:39:26;33.03;;;19.13;;
39020;SDS011;25188;51.958;5.842;2024-03-06T05:41:55;34.00;;;19.80;;
39020;SDS011;25188;51.958;5.842;2024-03-06T05:44:24;28.83;;;18.13;;
39020;SDS011;25188;51.958;5.842;2024-03-06T05:46:50;33.13;;;20.53;;
39020;SDS011;25188;51.958;5.842;2024-03-06T05:49:16;36.17;;;20.77;;
39020;SDS011;25188;51.958;5.842;2024-03-06T05:51:41;33.77;;;20.93;;
39020;SDS011;25188;51.958;5.842;2024-03-06T05:54:07;36.10;;;21.03;;
39020;SDS011;25188;51.958;5.842;2024-03-06T05:56:37;37.57;;;21.67;;
39020;SDS011;25188;51.958;5.842;2024-03-06T05:59:04;36.13;;;21.97;;
39020;SDS011;25188;51.958;5.842;2024-03-06T06:01:33;52.43;;;22.53;;
39020;SDS011;25188;51.958;5.842;2024-03-06T06:03:59;54.37;;;23.57;;
39020;SDS011;25188;51.958;5.842;2024-03-06T06:06:25;76.10;;;24.77;;
39020;SDS011;25188;51.958;5.842;2024-03-06T06:08:51;53.77;;;24.43;;
39020;SDS011;25188;51.958;5.842;2024-03-06T06:11:17;53.57;;;24.03;;
39020;SDS011;25188;51.958;5.842;2024-03-06T06:13:43;55.70;;;24.80;;
39020;SDS011;25188;51.958;5.842;2024-03-06T06:16:08;123.53;;;25.77;;
39020;SDS011;25188;51.958;5.842;2024-03-06T06:18:34;83.13;;;26.53;;
39020;SDS011;25188;51.958;5.842;2024-03-06T06:21:00;117.47;;;27.83;;
39020;SDS011;25188;51.958;5.842;2024-03-06T06:23:26;45.73;;;22.00;;
39020;SDS011;25188;51.958;5.842;2024-03-06T06:25:51;67.00;;;25.20;;
39020;SDS011;25188;51.958;5.842;2024-03-06T06:28:17;51.40;;;22.30;;
39020;SDS011;25188;51.958;5.842;2024-03-06T06:30:43;47.23;;;22.23;;
39020;SDS011;25188;51.958;5.842;2024-03-06T06:33:08;49.20;;;22.80;;
39020;SDS011;25188;51.958;5.842;2024-03-06T06:35:34;77.73;;;23.77;;
39020;SDS011;25188;51.958;5.842;2024-03-06T06:38:01;67.03;;;24.73;;
39020;SDS011;25188;51.958;5.842;2024-03-06T06:40:27;42.57;;;22.43;;
39020;SDS011;25188;51.958;5.842;2024-03-06T06:42:55;48.77;;;24.07;;
39020;SDS011;25188;51.958;5.842;2024-03-06T06:45:21;38.90;;;22.40;;
39020;SDS011;25188;51.958;5.842;2024-03-06T06:47:47;87.03;;;24.40;;
39020;SDS011;25188;51.958;5.842;2024-03-06T06:50:13;36.97;;;22.77;;
39020;SDS011;25188;51.958;5.842;2024-03-06T06:52:39;64.63;;;23.03;;
39020;SDS011;25188;51.958;5.842;2024-03-06T06:55:05;50.53;;;23.50;;
39020;SDS011;25188;51.958;5.842;2024-03-06T06:57:31;55.97;;;23.30;;
39020;SDS011;25188;51.958;5.842;2024-03-06T06:59:58;59.60;;;23.37;;
39020;SDS011;25188;51.958;5.842;2024-03-06T07:02:24;41.83;;;23.03;;
39020;SDS011;25188;51.958;5.842;2024-03-06T07:04:50;44.37;;;23.77;;
39020;SDS011;25188;51.958;5.842;2024-03-06T07:07:16;44.03;;;22.40;;
39020;SDS011;25188;51.958;5.842;2024-03-06T07:09:43;59.13;;;24.00;;
39020;SDS011;25188;51.958;5.842;2024-03-06T07:12:09;70.20;;;23.97;;
39020;SDS011;25188;51.958;5.842;2024-03-06T07:14:34;71.10;;;23.93;;
39020;SDS011;25188;51.958;5.842;2024-03-06T07:17:00;64.93;;;23.43;;
39020;SDS011;25188;51.958;5.842;2024-03-06T07:19:26;71.97;;;21.07;;
39020;SDS011;25188;51.958;5.842;2024-03-06T07:21:52;50.17;;;20.47;;
39020;SDS011;25188;51.958;5.842;2024-03-06T07:24:18;42.30;;;19.70;;
39020;SDS011;25188;51.958;5.842;2024-03-06T07:27:08;54.33;;;20.50;;
39020;SDS011;25188;51.958;5.842;2024-03-06T07:29:38;60.47;;;21.50;;
39020;SDS011;25188;51.958;5.842;2024-03-06T07:32:39;69.53;;;20.83;;
39020;SDS011;25188;51.958;5.842;2024-03-06T07:35:05;78.07;;;23.50;;
39020;SDS011;25188;51.958;5.842;2024-03-06T07:37:55;63.50;;;22.27;;
39020;SDS011;25188;51.958;5.842;2024-03-06T07:40:21;70.97;;;22.93;;
39020;SDS011;25188;51.958;5.842;2024-03-06T07:42:47;77.23;;;23.03;;
39020;SDS011;25188;51.958;5.842;2024-03-06T07:45:12;101.17;;;24.17;;
39020;SDS011;25188;51.958;5.842;2024-03-06T07:47:38;68.57;;;25.03;;
39020;SDS011;25188;51.958;5.842;2024-03-06T07:50:06;81.80;;;24.07;;
39020;SDS011;25188;51.958;5.842;2024-03-06T07:52:33;74.33;;;24.20;;
39020;SDS011;25188;51.958;5.842;2024-03-06T07:54:58;106.87;;;25.60;;
39020;SDS011;25188;51.958;5.842;2024-03-06T07:57:24;67.43;;;23.83;;
39020;SDS011;25188;51.958;5.842;2024-03-06T07:59:50;78.70;;;23.60;;
39020;SDS011;25188;51.958;5.842;2024-03-06T08:02:17;77.80;;;23.90;;
39020;SDS011;25188;51.958;5.842;2024-03-06T08:04:43;70.00;;;24.40;;
39020;SDS011;25188;51.958;5.842;2024-03-06T08:07:08;62.43;;;23.53;;
39020;SDS011;25188;51.958;5.842;2024-03-06T08:09:34;62.90;;;23.37;;
39020;SDS011;25188;51.958;5.842;2024-03-06T08:12:00;75.37;;;23.87;;
39020;SDS011;25188;51.958;5.842;2024-03-06T08:14:26;78.10;;;25.43;;
39020;SDS011;25188;51.958;5.842;2024-03-06T08:16:52;70.33;;;23.33;;
39020;SDS011;25188;51.958;5.842;2024-03-06T08:19:19;72.80;;;23.53;;
39020;SDS011;25188;51.958;5.842;2024-03-06T08:21:44;109.40;;;26.73;;
39020;SDS011;25188;51.958;5.842;2024-03-06T08:24:11;70.87;;;25.27;;
39020;SDS011;25188;51.958;5.842;2024-03-06T08:26:37;137.10;;;29.03;;
39020;SDS011;25188;51.958;5.842;2024-03-06T08:29:02;82.60;;;25.40;;
39020;SDS011;25188;51.958;5.842;2024-03-06T08:31:28;63.67;;;24.50;;
39020;SDS011;25188;51.958;5.842;2024-03-06T08:33:54;63.33;;;23.90;;
39020;SDS011;25188;51.958;5.842;2024-03-06T08:36:20;45.77;;;24.30;;
39020;SDS011;25188;51.958;5.842;2024-03-06T08:38:46;64.77;;;26.17;;
39020;SDS011;25188;51.958;5.842;2024-03-06T08:41:11;60.03;;;27.07;;
39020;SDS011;25188;51.958;5.842;2024-03-06T08:43:37;51.90;;;28.53;;
39020;SDS011;25188;51.958;5.842;2024-03-06T08:46:03;62.63;;;30.63;;
39020;SDS011;25188;51.958;5.842;2024-03-06T08:48:30;67.47;;;29.93;;
39020;SDS011;25188;51.958;5.842;2024-03-06T08:50:55;57.87;;;29.77;;
39020;SDS011;25188;51.958;5.842;2024-03-06T08:53:21;49.77;;;28.07;;
39020;SDS011;25188;51.958;5.842;2024-03-06T08:55:47;53.50;;;28.57;;
39020;SDS011;25188;51.958;5.842;2024-03-06T08:58:12;49.50;;;25.17;;
39020;SDS011;25188;51.958;5.842;2024-03-06T09:00:39;48.07;;;26.37;;
39020;SDS011;25188;51.958;5.842;2024-03-06T09:03:05;46.60;;;25.13;;
39020;SDS011;25188;51.958;5.842;2024-03-06T09:05:30;51.53;;;25.17;;
39020;SDS011;25188;51.958;5.842;2024-03-06T09:07:56;52.27;;;25.83;;
39020;SDS011;25188;51.958;5.842;2024-03-06T09:10:22;47.00;;;23.43;;
39020;SDS011;25188;51.958;5.842;2024-03-06T09:12:48;53.93;;;25.27;;
39020;SDS011;25188;51.958;5.842;2024-03-06T09:15:14;43.97;;;25.63;;
39020;SDS011;25188;51.958;5.842;2024-03-06T09:17:41;45.07;;;25.90;;
39020;SDS011;25188;51.958;5.842;2024-03-06T09:20:07;49.17;;;26.23;;
39020;SDS011;25188;51.958;5.842;2024-03-06T09:22:37;45.60;;;26.33;;
39020;SDS011;25188;51.958;5.842;2024-03-06T09:25:03;53.70;;;27.13;;
39020;SDS011;25188;51.958;5.842;2024-03-06T09:27:30;46.10;;;26.00;;
39020;SDS011;25188;51.958;5.842;2024-03-06T09:29:55;46.37;;;25.03;;
39020;SDS011;25188;51.958;5.842;2024-03-06T09:32:21;46.53;;;25.57;;
39020;SDS011;25188;51.958;5.842;2024-03-06T09:34:47;45.70;;;25.53;;
39020;SDS011;25188;51.958;5.842;2024-03-06T09:37:13;39.57;;;24.37;;
39020;SDS011;25188;51.958;5.842;2024-03-06T09:39:39;40.07;;;24.23;;
39020;SDS011;25188;51.958;5.842;2024-03-06T09:42:05;42.97;;;25.33;;
39020;SDS011;25188;51.958;5.842;2024-03-06T09:44:32;42.00;;;24.87;;
39020;SDS011;25188;51.958;5.842;2024-03-06T09:46:59;46.77;;;24.60;;
39020;SDS011;25188;51.958;5.842;2024-03-06T09:49:28;38.27;;;22.33;;
39020;SDS011;25188;51.958;5.842;2024-03-06T09:51:55;40.13;;;24.37;;
39020;SDS011;25188;51.958;5.842;2024-03-06T09:54:23;41.20;;;24.33;;
39020;SDS011;25188;51.958;5.842;2024-03-06T09:56:51;42.00;;;23.70;;
39020;SDS011;25188;51.958;5.842;2024-03-06T09:59:16;43.17;;;25.00;;
39020;SDS011;25188;51.958;5.842;2024-03-06T10:01:55;42.07;;;23.63;;
39020;SDS011;25188;51.958;5.842;2024-03-06T10:04:28;45.83;;;24.07;;
39020;SDS011;25188;51.958;5.842;2024-03-06T10:06:58;43.80;;;24.17;;
39020;SDS011;25188;51.958;5.842;2024-03-06T10:09:25;39.37;;;23.03;;
39020;SDS011;25188;51.958;5.842;2024-03-06T10:11:52;41.33;;;24.00;;
39020;SDS011;25188;51.958;5.842;2024-03-06T10:14:19;46.53;;;26.07;;
39020;SDS011;25188;51.958;5.842;2024-03-06T10:19:22;43.93;;;24.77;;
39020;SDS011;25188;51.958;5.842;2024-03-06T10:21:49;44.87;;;25.63;;
39020;SDS011;25188;51.958;5.842;2024-03-06T10:24:19;39.93;;;23.93;;
39020;SDS011;25188;51.958;5.842;2024-03-06T10:26:50;39.42;;;24.38;;
39020;SDS011;25188;51.958;5.842;2024-03-06T10:29:19;41.87;;;24.30;;
39020;SDS011;25188;51.958;5.842;2024-03-06T10:34:15;39.83;;;25.07;;
39020;SDS011;25188;51.958;5.842;2024-03-06T10:36:41;42.27;;;25.10;;
39020;SDS011;25188;51.958;5.842;2024-03-06T10:39:08;45.03;;;26.83;;
39020;SDS011;25188;51.958;5.842;2024-03-06T10:41:36;41.83;;;25.47;;
39020;SDS011;25188;51.958;5.842;2024-03-06T10:44:05;41.73;;;24.67;;
39020;SDS011;25188;51.958;5.842;2024-03-06T10:46:38;43.27;;;25.97;;
39020;SDS011;25188;51.958;5.842;2024-03-06T10:49:08;42.42;;;25.70;;
39020;SDS011;25188;51.958;5.842;2024-03-06T10:51:36;41.07;;;25.60;;
39020;SDS011;25188;51.958;5.842;2024-03-06T10:54:07;41.70;;;24.38;;
39020;SDS011;25188;51.958;5.842;2024-03-06T10:56:34;41.63;;;24.17;;
39020;SDS011;25188;51.958;5.842;2024-03-06T10:58:59;38.55;;;24.30;;
39020;SDS011;25188;51.958;5.842;2024-03-06T11:01:26;40.50;;;25.00;;
39020;SDS011;25188;51.958;5.842;2024-03-06T11:03:57;45.70;;;26.10;;
39020;SDS011;25188;51.958;5.842;2024-03-06T11:06:25;38.22;;;24.48;;
39020;SDS011;25188;51.958;5.842;2024-03-06T11:08:52;40.05;;;22.25;;
39020;SDS011;25188;51.958;5.842;2024-03-06T11:11:24;40.72;;;25.23;;
39020;SDS011;25188;51.958;5.842;2024-03-06T11:13:50;37.85;;;22.92;;
39020;SDS011;25188;51.958;5.842;2024-03-06T11:16:31;37.00;;;22.60;;
39020;SDS011;25188;51.958;5.842;2024-03-06T11:19:17;41.92;;;25.60;;
39020;SDS011;25188;51.958;5.842;2024-03-06T11:21:46;44.25;;;26.67;;
39020;SDS011;25188;51.958;5.842;2024-03-06T11:24:14;45.65;;;27.92;;
39020;SDS011;25188;51.958;5.842;2024-03-06T11:27:00;46.05;;;27.58;;
39020;SDS011;25188;51.958;5.842;2024-03-06T11:32:28;40.65;;;24.30;;
39020;SDS011;25188;51.958;5.842;2024-03-06T11:34:53;42.80;;;25.17;;
39020;SDS011;25188;51.958;5.842;2024-03-06T11:37:20;37.08;;;22.95;;
39020;SDS011;25188;51.958;5.842;2024-03-06T11:39:47;45.75;;;24.33;;
39020;SDS011;25188;51.958;5.842;2024-03-06T11:42:13;37.20;;;23.77;;
39020;SDS011;25188;51.958;5.842;2024-03-06T11:44:52;35.35;;;22.83;;
39020;SDS011;25188;51.958;5.842;2024-03-06T11:47:24;34.00;;;21.60;;
39020;SDS011;25188;51.958;5.842;2024-03-06T11:49:49;36.75;;;22.90;;
39020;SDS011;25188;51.958;5.842;2024-03-06T11:52:17;37.22;;;23.05;;
39020;SDS011;25188;51.958;5.842;2024-03-06T11:54:42;38.30;;;23.38;;
39020;SDS011;25188;51.958;5.842;2024-03-06T11:57:08;40.08;;;25.85;;
39020;SDS011;25188;51.958;5.842;2024-03-06T11:59:36;34.03;;;22.10;;
39020;SDS011;25188;51.958;5.842;2024-03-06T12:02:05;34.28;;;20.27;;
39020;SDS011;25188;51.958;5.842;2024-03-06T12:04:31;32.50;;;21.65;;
39020;SDS011;25188;51.958;5.842;2024-03-06T12:07:03;35.08;;;22.80;;
39020;SDS011;25188;51.958;5.842;2024-03-06T12:09:32;30.35;;;20.20;;
39020;SDS011;25188;51.958;5.842;2024-03-06T12:12:00;43.95;;;21.05;;
39020;SDS011;25188;51.958;5.842;2024-03-06T12:14:27;28.60;;;17.67;;
39020;SDS011;25188;51.958;5.842;2024-03-06T12:16:56;27.45;;;18.13;;
39020;SDS011;25188;51.958;5.842;2024-03-06T12:19:24;25.35;;;17.65;;
39020;SDS011;25188;51.958;5.842;2024-03-06T12:21:54;25.58;;;17.85;;
39020;SDS011;25188;51.958;5.842;2024-03-06T12:24:20;26.27;;;18.00;;
39020;SDS011;25188;51.958;5.842;2024-03-06T12:26:46;24.58;;;16.88;;
39020;SDS011;25188;51.958;5.842;2024-03-06T12:29:22;23.08;;;16.80;;
39020;SDS011;25188;51.958;5.842;2024-03-06T12:31:48;21.42;;;15.25;;
39020;SDS011;25188;51.958;5.842;2024-03-06T12:34:14;21.55;;;15.68;;
39020;SDS011;25188;51.958;5.842;2024-03-06T12:36:42;20.88;;;14.90;;
39020;SDS011;25188;51.958;5.842;2024-03-06T12:39:08;19.15;;;13.98;;
39020;SDS011;25188;51.958;5.842;2024-03-06T12:41:40;17.13;;;13.70;;
39020;SDS011;25188;51.958;5.842;2024-03-06T12:44:06;17.02;;;12.73;;
39020;SDS011;25188;51.958;5.842;2024-03-06T12:46:32;16.00;;;12.70;;
39020;SDS011;25188;51.958;5.842;2024-03-06T12:48:57;17.30;;;13.05;;
39020;SDS011;25188;51.958;5.842;2024-03-06T12:51:23;18.17;;;13.93;;
39020;SDS011;25188;51.958;5.842;2024-03-06T12:53:49;15.55;;;12.32;;
39020;SDS011;25188;51.958;5.842;2024-03-06T12:56:16;15.40;;;12.90;;
39020;SDS011;25188;51.958;5.842;2024-03-06T12:58:42;14.13;;;11.43;;
39020;SDS011;25188;51.958;5.842;2024-03-06T13:01:08;13.98;;;11.18;;
39020;SDS011;25188;51.958;5.842;2024-03-06T13:03:34;16.23;;;12.50;;
39020;SDS011;25188;51.958;5.842;2024-03-06T13:05:59;14.35;;;11.10;;
39020;SDS011;25188;51.958;5.842;2024-03-06T13:08:25;12.40;;;9.25;;
39020;SDS011;25188;51.958;5.842;2024-03-06T13:10:51;13.88;;;10.00;;
39020;SDS011;25188;51.958;5.842;2024-03-06T13:13:17;13.15;;;10.20;;
39020;SDS011;25188;51.958;5.842;2024-03-06T13:15:43;11.52;;;9.63;;
39020;SDS011;25188;51.958;5.842;2024-03-06T13:18:09;13.18;;;9.70;;
39020;SDS011;25188;51.958;5.842;2024-03-06T13:20:35;13.02;;;9.05;;
39020;SDS011;25188;51.958;5.842;2024-03-06T13:23:00;12.93;;;9.23;;
39020;SDS011;25188;51.958;5.842;2024-03-06T13:25:26;11.35;;;8.07;;
39020;SDS011;25188;51.958;5.842;2024-03-06T13:27:52;10.43;;;7.82;;
39020;SDS011;25188;51.958;5.842;2024-03-06T13:30:19;13.27;;;7.97;;
39020;SDS011;25188;51.958;5.842;2024-03-06T13:32:45;10.77;;;7.75;;
39020;SDS011;25188;51.958;5.842;2024-03-06T13:35:14;11.48;;;8.35;;
39020;SDS011;25188;51.958;5.842;2024-03-06T13:37:40;12.18;;;8.63;;
39020;SDS011;25188;51.958;5.842;2024-03-06T13:40:06;11.55;;;7.85;;
39020;SDS011;25188;51.958;5.842;2024-03-06T13:42:34;10.10;;;7.60;;
39020;SDS011;25188;51.958;5.842;2024-03-06T13:45:00;9.23;;;6.88;;
39020;SDS011;25188;51.958;5.842;2024-03-06T13:47:26;7.25;;;4.53;;
39020;SDS011;25188;51.958;5.842;2024-03-06T13:49:52;6.28;;;3.35;;
39020;SDS011;25188;51.958;5.842;2024-03-06T13:52:18;6.75;;;3.92;;
39020;SDS011;25188;51.958;5.842;2024-03-06T13:54:45;4.65;;;3.38;;
39020;SDS011;25188;51.958;5.842;2024-03-06T13:57:13;5.88;;;3.45;;
39020;SDS011;25188;51.958;5.842;2024-03-06T13:59:39;5.75;;;3.25;;
39020;SDS011;25188;51.958;5.842;2024-03-06T14:02:05;4.28;;;2.55;;
39020;SDS011;25188;51.958;5.842;2024-03-06T14:04:32;6.22;;;2.70;;
39020;SDS011;25188;51.958;5.842;2024-03-06T14:06:57;6.82;;;3.58;;
39020;SDS011;25188;51.958;5.842;2024-03-06T14:09:24;4.38;;;2.97;;
39020;SDS011;25188;51.958;5.842;2024-03-06T14:11:50;6.25;;;3.22;;
39020;SDS011;25188;51.958;5.842;2024-03-06T14:14:17;5.25;;;2.85;;
39020;SDS011;25188;51.958;5.842;2024-03-06T14:16:43;5.05;;;3.08;;
39020;SDS011;25188;51.958;5.842;2024-03-06T14:19:09;5.00;;;2.55;;
39020;SDS011;25188;51.958;5.842;2024-03-06T14:21:35;4.90;;;3.00;;
39020;SDS011;25188;51.958;5.842;2024-03-06T14:24:01;5.18;;;3.08;;
39020;SDS011;25188;51.958;5.842;2024-03-06T14:26:31;8.63;;;4.13;;
39020;SDS011;25188;51.958;5.842;2024-03-06T14:28:58;5.88;;;3.13;;